Roseburg, OR

12:10 PM PST on March 01, 2017 (GMT -0800)
Roseburg Regional | | Change Station

Elev 528 ft 43.24 °N, 123.36 °W | Updated 17 minutes ago

Clear
Clear
48 °F
Feels Like 48 °F
N
0
Wind Variable Wind from North

Today
High -- | Low -- °F
--% Chance of Precip.
Yesterday
High -- | Low -- °F
Precip. -- in
Pressure 30.53 in
Visibility 10.0 miles
Clouds Clear
Dew Point 38 °F
Humidity 68%
Rainfall 0.00 in
Snow Depth Not available.
6:48 AM 6:03 PM
Waxing Crescent, 13% visible
METAR KRBG 011953Z AUTO 00000KT 10SM CLR 09/03 A3051 RMK AO2 SLP336 T00890033
Pressure 30.53 in
Visibility 10.0 miles
Clouds Clear
Dew Point 38 °F
Humidity 68%
Rainfall 0.00 in
Snow Depth Not available.
6:48 AM 6:03 PM
Waxing Crescent, 13% visible
METAR KRBG 011953Z AUTO 00000KT 10SM CLR 09/03 A3051 RMK AO2 SLP336 T00890033

Get Your Daily Forecast Email!

Thanks for signing up!

Be on the lookout for a verification email in your inbox.

You'll start receiving the daily forecast at 8 AM.

×

10-Day Weather Forecast

Almanac

Astronomy

Mar. 01, 2017 Rise Set
Actual Time
Civil Twilight
Nautical Twilight
Astronomical Twilight
Moon
Length of Visible Light
Length of Day
Tomorrow will be .
, % of the Moon is Illuminated

Today's Extremes

State Highs State Lows

Community

WunderPhotos

Upload Photos

1,962,540 photos uploaded!

WunderBlog® & News

Nearby

Air Quality

  Air Quality AQ Index Pollutant
Not available.

Snow Depth

Station Depth Elevation

Earthquake Activity

City Distance Mag. Time & Date
Minimum magnitude displayed is 2.5.

Coastal Water Temperatures

Place Temperature

Stations

Nearby Weather Stations

Station Location Temp. Windchill Dew Point Humidity Wind Precip. Elev Updated Type
                   

Watches & Warnings

There are currently no watches in effect.